createdAt,value
2017-08-20T00:00:39.877Z,17.70
2017-08-20T00:03:07.683Z,17.80
2017-08-20T00:05:35.547Z,17.70
2017-08-20T00:08:03.411Z,17.70
2017-08-20T00:10:31.275Z,17.70
2017-08-20T00:12:59.138Z,17.70
2017-08-20T00:15:27.002Z,17.70
2017-08-20T00:17:54.867Z,17.80
2017-08-20T00:20:22.730Z,17.70
2017-08-20T00:22:50.594Z,17.60
2017-08-20T00:25:18.457Z,17.50
2017-08-20T00:27:46.321Z,17.40
2017-08-20T00:30:14.185Z,17.40
2017-08-20T00:32:42.049Z,17.30
2017-08-20T00:35:09.916Z,17.30
2017-08-20T00:37:37.645Z,17.20
2017-08-20T00:40:05.435Z,17.20
2017-08-20T00:42:33.301Z,17.10
2017-08-20T00:45:01.090Z,17.10
2017-08-20T00:47:29.643Z,17.10
2017-08-20T00:49:57.506Z,17.10
2017-08-20T00:52:25.257Z,17.20
2017-08-20T00:54:53.028Z,17.20
2017-08-20T00:57:20.893Z,17.20
2017-08-20T00:59:48.714Z,17.10
2017-08-20T01:02:16.518Z,17.20
2017-08-20T01:04:44.388Z,17.10
2017-08-20T01:07:12.247Z,17.10
2017-08-20T01:09:40.109Z,17.00
2017-08-20T01:12:07.871Z,17.00
2017-08-20T01:14:35.734Z,16.90
2017-08-20T01:17:03.564Z,17.00
2017-08-20T01:19:31.317Z,17.00
2017-08-20T01:21:59.225Z,17.00
2017-08-20T01:24:27.088Z,16.90
2017-08-20T01:26:54.953Z,16.90
2017-08-20T01:29:22.815Z,16.80
2017-08-20T01:31:50.679Z,16.70
2017-08-20T01:34:18.458Z,16.60
2017-08-20T01:36:46.409Z,16.50
2017-08-20T01:39:14.277Z,16.40
2017-08-20T01:41:42.138Z,16.40
2017-08-20T01:44:09.919Z,16.30
2017-08-20T01:46:37.762Z,16.30
2017-08-20T01:49:05.625Z,16.20
2017-08-20T01:51:33.344Z,16.20
2017-08-20T01:54:01.250Z,16.10
2017-08-20T01:56:29.077Z,16.10
2017-08-20T01:58:57.187Z,16.10
2017-08-20T02:01:25.048Z,16.00
2017-08-20T02:03:52.909Z,16.00
2017-08-20T02:06:20.776Z,16.00
2017-08-20T02:08:48.550Z,15.90
2017-08-20T02:11:16.399Z,15.90
2017-08-20T02:13:44.263Z,15.90
2017-08-20T02:16:11.980Z,15.90
2017-08-20T02:18:39.787Z,15.90
2017-08-20T02:21:07.546Z,15.80
2017-08-20T02:23:35.412Z,15.70
2017-08-20T02:26:03.148Z,15.70
2017-08-20T02:28:30.934Z,15.70
2017-08-20T02:30:58.799Z,15.70
2017-08-20T02:33:26.663Z,15.70
2017-08-20T02:35:54.526Z,15.60
2017-08-20T02:38:22.393Z,15.60
2017-08-20T02:40:50.357Z,15.60
2017-08-20T02:43:18.223Z,15.60
2017-08-20T02:45:45.942Z,15.60
2017-08-20T02:48:13.746Z,15.50
2017-08-20T02:50:41.608Z,15.50
2017-08-20T02:53:09.471Z,15.50
2017-08-20T02:55:37.298Z,15.40
2017-08-20T02:58:05.097Z,15.50
2017-08-20T03:00:32.960Z,15.50
2017-08-20T03:03:00.826Z,15.40
2017-08-20T03:05:28.690Z,15.40
2017-08-20T03:07:56.552Z,15.40
2017-08-20T03:10:24.416Z,15.50
2017-08-20T03:12:52.383Z,15.50
2017-08-20T03:15:20.246Z,15.50
2017-08-20T03:17:48.113Z,15.50
2017-08-20T03:20:15.975Z,15.40
2017-08-20T03:22:43.839Z,15.30
2017-08-20T03:25:11.701Z,15.30
2017-08-20T03:27:39.566Z,15.30
2017-08-20T03:30:07.292Z,15.30
2017-08-20T03:32:35.191Z,15.30
2017-08-20T03:35:03.054Z,15.20
2017-08-20T03:37:30.920Z,15.20
2017-08-20T03:39:58.783Z,15.10
2017-08-20T03:42:26.649Z,15.10
2017-08-20T03:44:54.511Z,15.10
2017-08-20T03:47:22.373Z,15.10
2017-08-20T03:49:50.240Z,15.20
2017-08-20T03:52:18.103Z,15.20
2017-08-20T03:54:45.965Z,15.10
2017-08-20T03:57:13.830Z,15.10
2017-08-20T03:59:41.563Z,15.10
2017-08-20T04:02:09.529Z,15.10
2017-08-20T04:04:37.281Z,15.10
2017-08-20T04:07:05.083Z,15.10
2017-08-20T04:09:32.945Z,15.10
2017-08-20T04:12:00.809Z,15.10
2017-08-20T04:14:28.672Z,15.10
2017-08-20T04:16:56.535Z,15.10
2017-08-20T04:19:24.401Z,15.20
2017-08-20T04:21:52.264Z,15.30
2017-08-20T04:24:20.127Z,15.30
2017-08-20T04:26:48.298Z,15.30
2017-08-20T04:29:16.163Z,15.40
2017-08-20T04:31:44.026Z,15.40
2017-08-20T04:34:11.889Z,15.40
2017-08-20T04:36:39.761Z,15.40
2017-08-20T04:39:07.616Z,15.40
2017-08-20T04:41:35.482Z,15.40
2017-08-20T04:44:03.347Z,15.40
2017-08-20T04:46:31.174Z,15.50
2017-08-20T04:48:58.971Z,15.50
2017-08-20T04:51:26.834Z,15.60
2017-08-20T04:53:54.697Z,15.70
2017-08-20T04:56:22.564Z,15.90
2017-08-20T04:58:50.429Z,16.00
2017-08-20T05:01:18.187Z,16.10
2017-08-20T05:03:46.051Z,16.20
2017-08-20T05:06:13.915Z,16.30
2017-08-20T05:08:41.780Z,16.40
2017-08-20T05:11:09.643Z,16.50
2017-08-20T05:13:37.507Z,16.60
2017-08-20T05:16:05.370Z,16.80
2017-08-20T05:18:33.198Z,16.80
2017-08-20T05:21:00.995Z,16.80
2017-08-20T05:23:28.861Z,16.80
2017-08-20T05:25:56.724Z,16.90
2017-08-20T05:28:24.588Z,16.90
2017-08-20T05:30:52.452Z,16.90
2017-08-20T05:33:20.183Z,16.90
2017-08-20T05:35:48.077Z,16.90
2017-08-20T05:38:15.940Z,17.00
2017-08-20T05:40:43.806Z,16.90
2017-08-20T05:43:11.669Z,16.90
2017-08-20T05:45:39.533Z,17.00
2017-08-20T05:48:07.398Z,16.90
2017-08-20T05:50:35.159Z,17.00
2017-08-20T05:53:03.021Z,17.10
2017-08-20T05:55:30.885Z,17.20
2017-08-20T05:57:58.749Z,17.30
2017-08-20T06:00:26.613Z,17.30
2017-08-20T06:02:54.477Z,17.40
2017-08-20T06:05:22.342Z,17.60
2017-08-20T06:07:50.070Z,17.60
2017-08-20T06:10:17.867Z,17.80
2017-08-20T06:12:45.731Z,17.90
2017-08-20T06:15:13.499Z,17.90
2017-08-20T06:17:41.355Z,18.10
2017-08-20T06:20:09.179Z,18.20
2017-08-20T06:22:36.979Z,18.30
2017-08-20T06:25:04.945Z,18.40
2017-08-20T06:27:32.809Z,18.40
2017-08-20T06:30:00.586Z,18.50
2017-08-20T06:32:28.435Z,18.60
2017-08-20T06:34:56.299Z,18.60
2017-08-20T06:37:24.162Z,18.80
2017-08-20T06:39:52.948Z,18.90
2017-08-20T06:42:21.131Z,19.10
2017-08-20T06:44:48.983Z,19.30
2017-08-20T06:47:16.848Z,19.30
2017-08-20T06:49:44.713Z,19.40
2017-08-20T06:52:12.441Z,19.50
2017-08-20T06:54:40.339Z,19.70
2017-08-20T06:57:08.201Z,19.90
2017-08-20T06:59:36.065Z,20.00
2017-08-20T07:02:03.927Z,20.10
2017-08-20T07:04:31.791Z,20.50
2017-08-20T07:06:59.614Z,20.80
2017-08-20T07:09:27.416Z,21.50
2017-08-20T07:11:55.282Z,21.80
2017-08-20T07:14:23.106Z,22.20
2017-08-20T07:16:50.911Z,22.50
2017-08-20T07:19:18.768Z,22.60
2017-08-20T07:21:46.634Z,22.90
2017-08-20T07:24:14.500Z,22.40
2017-08-20T07:26:42.363Z,22.30
2017-08-20T07:29:10.225Z,22.20
2017-08-20T07:31:38.090Z,22.00
2017-08-20T07:34:05.953Z,22.10
2017-08-20T07:36:33.714Z,22.50
2017-08-20T07:39:01.579Z,22.90
2017-08-20T07:41:29.443Z,23.70
2017-08-20T07:43:57.305Z,24.60
2017-08-20T07:46:25.150Z,25.30
2017-08-20T07:48:53.036Z,26.00
2017-08-20T07:51:20.899Z,26.00
2017-08-20T07:53:48.761Z,25.60
2017-08-20T07:56:16.626Z,25.50
2017-08-20T07:58:44.489Z,24.90
2017-08-20T08:01:12.969Z,25.00
2017-08-20T08:03:40.839Z,24.60
2017-08-20T08:06:08.593Z,24.10
2017-08-20T08:08:36.458Z,23.80
2017-08-20T08:11:04.321Z,23.10
2017-08-20T08:13:32.188Z,22.50
2017-08-20T08:16:00.151Z,22.10
2017-08-20T08:18:28.014Z,22.20
2017-08-20T08:20:55.953Z,22.10
2017-08-20T08:23:23.687Z,22.20
2017-08-20T08:25:51.426Z,22.20
2017-08-20T08:28:20.086Z,22.50
2017-08-20T08:30:47.949Z,22.40
2017-08-20T08:33:15.812Z,22.40
2017-08-20T08:35:43.714Z,22.60
2017-08-20T08:38:12.258Z,22.80
2017-08-20T08:40:40.123Z,22.80
2017-08-20T08:43:07.985Z,23.20
2017-08-20T08:45:35.849Z,23.20
2017-08-20T08:48:03.610Z,23.10
2017-08-20T08:50:31.373Z,22.90
2017-08-20T08:52:59.234Z,22.90
2017-08-20T08:55:27.059Z,22.70
2017-08-20T08:57:54.846Z,22.90
2017-08-20T09:00:22.622Z,23.00
2017-08-20T09:02:50.485Z,22.90
2017-08-20T09:05:18.315Z,22.70
2017-08-20T09:07:46.111Z,22.50
2017-08-20T09:10:13.975Z,22.20
2017-08-20T09:12:41.838Z,22.10
2017-08-20T09:15:09.604Z,22.10
2017-08-20T09:17:37.362Z,22.20
2017-08-20T09:20:05.087Z,22.10
2017-08-20T09:22:32.987Z,22.10
2017-08-20T09:25:00.854Z,21.90
2017-08-20T09:27:28.722Z,21.80
2017-08-20T09:29:56.579Z,21.80
2017-08-20T09:32:24.316Z,21.70
2017-08-20T09:34:52.115Z,21.70
2017-08-20T09:37:19.967Z,21.70
2017-08-20T09:39:47.726Z,21.70
2017-08-20T09:42:15.596Z,21.80
2017-08-20T09:44:43.323Z,21.90
2017-08-20T09:47:11.218Z,21.90
2017-08-20T09:49:39.045Z,22.10
2017-08-20T09:52:06.843Z,22.00
2017-08-20T09:54:34.705Z,22.00
2017-08-20T09:57:02.569Z,22.10
2017-08-20T09:59:30.433Z,22.40
2017-08-20T10:01:58.276Z,22.60
2017-08-20T10:04:26.062Z,22.80
2017-08-20T10:06:53.922Z,22.80
2017-08-20T10:09:21.640Z,22.70
2017-08-20T10:11:49.549Z,22.80
2017-08-20T10:14:17.308Z,22.70
2017-08-20T10:16:45.174Z,22.60
2017-08-20T10:19:13.041Z,22.20
2017-08-20T10:21:40.901Z,22.00
2017-08-20T10:24:08.765Z,22.00
2017-08-20T10:26:36.628Z,22.30
2017-08-20T10:29:04.492Z,22.40
2017-08-20T10:31:32.256Z,22.40
2017-08-20T10:34:00.117Z,22.40
2017-08-20T10:36:27.982Z,22.60
2017-08-20T10:38:55.703Z,22.90
2017-08-20T10:41:23.504Z,23.00
2017-08-20T10:43:51.369Z,22.90
2017-08-20T10:46:19.232Z,22.90
2017-08-20T10:48:47.010Z,22.70
2017-08-20T10:51:14.755Z,22.60
2017-08-20T10:53:42.516Z,22.50
2017-08-20T10:56:10.382Z,22.30
2017-08-20T10:58:38.109Z,22.60
2017-08-20T11:01:06.005Z,22.80
2017-08-20T11:03:33.725Z,23.00
2017-08-20T11:06:01.534Z,23.10
2017-08-20T11:08:29.393Z,23.00
2017-08-20T11:10:57.214Z,22.80
2017-08-20T11:13:25.119Z,22.60
2017-08-20T11:15:52.881Z,22.90
2017-08-20T11:18:20.747Z,22.90
2017-08-20T11:20:48.613Z,22.90
2017-08-20T11:23:16.482Z,22.90
2017-08-20T11:25:44.338Z,23.30
2017-08-20T11:28:12.202Z,23.20
2017-08-20T11:30:40.066Z,23.00
2017-08-20T11:33:07.929Z,22.50
2017-08-20T11:35:35.793Z,22.60
2017-08-20T11:38:03.656Z,22.90
2017-08-20T11:40:31.519Z,23.10
2017-08-20T11:42:59.385Z,23.30
2017-08-20T11:45:28.579Z,23.50
2017-08-20T11:47:56.445Z,23.50
2017-08-20T11:50:24.309Z,23.50
2017-08-20T11:52:52.069Z,23.60
2017-08-20T11:55:19.933Z,23.40
2017-08-20T11:57:47.804Z,23.50
2017-08-20T12:00:15.558Z,23.80
2017-08-20T12:02:43.421Z,24.50
2017-08-20T12:05:11.285Z,24.70
2017-08-20T12:07:39.661Z,24.80
2017-08-20T12:10:07.525Z,24.90
2017-08-20T12:12:35.389Z,25.10
2017-08-20T12:15:03.253Z,25.00
2017-08-20T12:17:31.131Z,24.60
2017-08-20T12:19:58.954Z,24.40
2017-08-20T12:22:26.951Z,24.00
2017-08-20T12:24:54.812Z,24.00
2017-08-20T12:27:22.674Z,23.90
2017-08-20T12:29:50.539Z,24.10
2017-08-20T12:32:18.402Z,24.00
2017-08-20T12:34:46.165Z,24.00
2017-08-20T12:37:13.891Z,24.20
2017-08-20T12:39:41.667Z,23.90
2017-08-20T12:42:09.389Z,23.90
2017-08-20T12:44:37.109Z,23.90
2017-08-20T12:47:04.862Z,23.90
2017-08-20T12:49:32.629Z,24.30
2017-08-20T12:52:00.495Z,24.60
2017-08-20T12:54:28.337Z,24.20
2017-08-20T12:56:56.119Z,23.80
2017-08-20T12:59:23.879Z,23.50
2017-08-20T13:01:51.603Z,23.40
2017-08-20T13:04:19.507Z,23.40
2017-08-20T13:06:47.370Z,23.20
2017-08-20T13:09:15.232Z,23.80
2017-08-20T13:11:43.098Z,24.00
2017-08-20T13:14:10.926Z,23.80
2017-08-20T13:16:38.760Z,23.50
2017-08-20T13:19:07.303Z,23.10
2017-08-20T13:21:35.168Z,23.10
2017-08-20T13:24:02.997Z,23.60
2017-08-20T13:26:30.795Z,24.00
2017-08-20T13:28:58.663Z,24.60
2017-08-20T13:31:26.522Z,25.10
2017-08-20T13:33:54.384Z,25.20
2017-08-20T13:36:22.248Z,25.20
2017-08-20T13:38:50.112Z,25.30
2017-08-20T13:41:17.976Z,25.30
2017-08-20T13:43:45.840Z,25.40
2017-08-20T13:46:13.558Z,25.40
2017-08-20T13:48:41.302Z,25.30
2017-08-20T13:51:09.841Z,24.90
2017-08-20T13:53:37.617Z,24.80
2017-08-20T13:56:05.336Z,24.30
2017-08-20T13:58:33.118Z,23.90
2017-08-20T14:01:00.866Z,23.30
2017-08-20T14:03:28.581Z,23.10
2017-08-20T14:05:56.614Z,23.20
2017-08-20T14:08:24.479Z,23.10
2017-08-20T14:10:52.200Z,23.00
2017-08-20T14:13:20.002Z,23.00
2017-08-20T14:15:47.728Z,23.10
2017-08-20T14:18:15.499Z,23.30
2017-08-20T14:20:43.218Z,23.30
2017-08-20T14:23:11.765Z,23.20
2017-08-20T14:25:39.632Z,23.20
2017-08-20T14:28:07.492Z,23.40
2017-08-20T14:30:35.360Z,23.50
2017-08-20T14:33:03.093Z,23.70
2017-08-20T14:35:30.855Z,23.70
2017-08-20T14:37:58.749Z,23.90
2017-08-20T14:40:26.606Z,24.00
2017-08-20T14:42:54.391Z,24.10
2017-08-20T14:45:22.899Z,23.80
2017-08-20T14:47:50.710Z,23.80
2017-08-20T14:50:18.574Z,23.10
2017-08-20T14:52:46.437Z,23.00
2017-08-20T14:55:14.301Z,22.80
2017-08-20T14:57:42.022Z,22.80
2017-08-20T15:00:09.827Z,22.90
2017-08-20T15:02:37.696Z,22.70
2017-08-20T15:05:05.423Z,22.50
2017-08-20T15:07:33.314Z,22.40
2017-08-20T15:10:01.178Z,22.40
2017-08-20T15:12:29.045Z,22.40
2017-08-20T15:14:56.873Z,22.60
2017-08-20T15:17:24.594Z,22.90
2017-08-20T15:19:53.249Z,23.20
2017-08-20T15:22:20.971Z,23.20
2017-08-20T15:24:48.770Z,23.30
2017-08-20T15:27:16.637Z,23.20
2017-08-20T15:29:44.497Z,23.00
2017-08-20T15:32:12.362Z,22.70
2017-08-20T15:34:40.123Z,22.40
2017-08-20T15:37:07.842Z,22.30
2017-08-20T15:39:35.750Z,22.00
2017-08-20T15:42:03.613Z,21.80
2017-08-20T15:44:31.478Z,21.50
2017-08-20T15:46:59.342Z,21.30
2017-08-20T15:49:27.204Z,21.30
2017-08-20T15:51:55.069Z,21.20
2017-08-20T15:54:22.933Z,21.10
2017-08-20T15:56:50.796Z,21.30
2017-08-20T15:59:18.660Z,21.20
2017-08-20T16:01:46.524Z,21.20
2017-08-20T16:04:14.276Z,21.20
2017-08-20T16:06:42.046Z,21.10
2017-08-20T16:09:09.911Z,21.00
2017-08-20T16:11:37.775Z,21.00
2017-08-20T16:14:05.493Z,21.00
2017-08-20T16:16:33.297Z,21.20
2017-08-20T16:19:01.059Z,21.30
2017-08-20T16:21:28.924Z,21.40
2017-08-20T16:23:56.786Z,21.40
2017-08-20T16:26:24.548Z,21.30
2017-08-20T16:28:52.415Z,21.20
2017-08-20T16:31:20.279Z,21.10
2017-08-20T16:33:48.058Z,21.00
2017-08-20T16:36:15.902Z,20.80
2017-08-20T16:38:43.764Z,20.70
2017-08-20T16:41:11.631Z,20.60
2017-08-20T16:43:39.498Z,20.60
2017-08-20T16:46:07.358Z,20.40
2017-08-20T16:48:35.221Z,20.40
2017-08-20T16:51:03.084Z,20.30
2017-08-20T16:53:30.830Z,20.20
2017-08-20T16:55:58.555Z,20.10
2017-08-20T16:58:26.330Z,20.00
2017-08-20T17:00:54.153Z,20.00
2017-08-20T17:03:22.714Z,19.80
2017-08-20T17:05:50.576Z,19.80
2017-08-20T17:08:18.440Z,19.70
2017-08-20T17:10:46.304Z,19.60
2017-08-20T17:13:14.166Z,19.60
2017-08-20T17:15:42.030Z,19.50
2017-08-20T17:18:09.902Z,19.50
2017-08-20T17:20:37.760Z,19.40
2017-08-20T17:23:05.534Z,19.30
2017-08-20T17:25:33.384Z,19.30
2017-08-20T17:28:01.248Z,19.10
2017-08-20T17:30:29.113Z,19.00
2017-08-20T17:32:56.876Z,18.90
2017-08-20T17:35:24.737Z,18.90
2017-08-20T17:37:52.471Z,18.80
2017-08-20T17:40:20.206Z,18.70
2017-08-20T17:42:48.023Z,18.70
2017-08-20T17:45:15.884Z,18.60
2017-08-20T17:47:43.749Z,18.40
2017-08-20T17:50:11.472Z,18.30
2017-08-20T17:52:39.272Z,18.20
2017-08-20T17:55:07.136Z,18.20
2017-08-20T17:57:34.999Z,18.10
2017-08-20T18:00:02.862Z,18.00
2017-08-20T18:02:30.728Z,17.90
2017-08-20T18:04:58.591Z,17.80
2017-08-20T18:07:26.456Z,17.70
2017-08-20T18:09:54.177Z,17.60
2017-08-20T18:12:22.081Z,17.60
2017-08-20T18:14:49.944Z,17.50
2017-08-20T18:17:17.807Z,17.40
2017-08-20T18:19:45.559Z,17.30
2017-08-20T18:22:13.282Z,17.20
2017-08-20T18:24:41.058Z,17.10
2017-08-20T18:27:08.854Z,17.10
2017-08-20T18:29:36.679Z,17.00
2017-08-20T18:32:04.480Z,16.90
2017-08-20T18:34:32.344Z,16.80
2017-08-20T18:37:00.209Z,16.70
2017-08-20T18:39:28.070Z,16.70
2017-08-20T18:41:55.937Z,16.70
2017-08-20T18:44:23.798Z,16.60
2017-08-20T18:46:51.546Z,16.60
2017-08-20T18:49:19.427Z,16.50
2017-08-20T18:51:47.289Z,16.40
2017-08-20T18:54:15.049Z,16.30
2017-08-20T18:56:42.913Z,16.20
2017-08-20T18:59:11.596Z,16.30
2017-08-20T19:01:39.459Z,16.20
2017-08-20T19:04:07.324Z,16.20
2017-08-20T19:06:35.085Z,16.10
2017-08-20T19:09:02.846Z,16.00
2017-08-20T19:11:30.713Z,15.90
2017-08-20T19:13:58.507Z,15.80
2017-08-20T19:16:27.054Z,15.70
2017-08-20T19:18:54.813Z,15.70
2017-08-20T19:21:22.679Z,15.70
2017-08-20T19:23:50.545Z,15.60
2017-08-20T19:26:18.407Z,15.50
2017-08-20T19:28:46.270Z,15.40
2017-08-20T19:31:14.133Z,15.40
2017-08-20T19:33:41.999Z,15.40
2017-08-20T19:36:09.864Z,15.30
2017-08-20T19:38:37.728Z,15.30
2017-08-20T19:41:06.251Z,15.20
2017-08-20T19:43:34.067Z,15.20
2017-08-20T19:46:01.931Z,15.30
2017-08-20T19:48:29.794Z,15.30
2017-08-20T19:50:58.377Z,15.20
2017-08-20T19:53:26.240Z,15.30
2017-08-20T19:55:55.332Z,15.30
2017-08-20T19:58:23.196Z,15.20
2017-08-20T20:00:51.061Z,15.20
2017-08-20T20:03:18.926Z,15.20
2017-08-20T20:05:46.788Z,15.10
2017-08-20T20:08:14.655Z,15.10
2017-08-20T20:10:42.515Z,15.20
2017-08-20T20:13:10.382Z,15.10
2017-08-20T20:15:38.243Z,15.10
2017-08-20T20:18:06.111Z,15.00
2017-08-20T20:20:37.809Z,15.10
2017-08-20T20:23:06.461Z,15.00
2017-08-20T20:25:34.307Z,14.90
2017-08-20T20:28:02.274Z,14.80
2017-08-20T20:30:30.137Z,14.70
2017-08-20T20:32:58.004Z,14.60
2017-08-20T20:35:25.873Z,14.50
2017-08-20T20:37:54.963Z,14.40
2017-08-20T20:40:23.030Z,14.40
2017-08-20T20:42:50.889Z,14.40
2017-08-20T20:45:18.754Z,14.40
2017-08-20T20:47:46.683Z,14.40
2017-08-20T20:50:14.481Z,14.40
2017-08-20T20:52:42.345Z,14.50
2017-08-20T20:55:10.210Z,14.50
2017-08-20T20:57:38.178Z,14.50
2017-08-20T21:00:06.144Z,14.50
2017-08-20T21:02:34.006Z,14.50
2017-08-20T21:05:01.871Z,14.50
2017-08-20T21:07:30.558Z,14.60
2017-08-20T21:09:58.420Z,14.50
2017-08-20T21:12:26.279Z,14.60
2017-08-20T21:14:54.146Z,14.50
2017-08-20T21:17:22.008Z,14.50
2017-08-20T21:19:49.872Z,14.50
2017-08-20T21:22:17.737Z,14.40
2017-08-20T21:24:45.599Z,14.30
2017-08-20T21:27:13.980Z,14.30
2017-08-20T21:29:41.840Z,14.20
2017-08-20T21:32:10.016Z,14.10
2017-08-20T21:34:37.875Z,14.10
2017-08-20T21:37:05.739Z,14.10
2017-08-20T21:39:33.605Z,14.10
2017-08-20T21:42:01.672Z,14.10
2017-08-20T21:44:29.536Z,14.10
2017-08-20T21:46:58.030Z,14.10
2017-08-20T21:49:26.696Z,14.10
2017-08-20T21:51:54.458Z,14.00
2017-08-20T21:54:22.321Z,14.10
2017-08-20T21:56:50.294Z,14.10
2017-08-20T21:59:18.157Z,14.10
2017-08-20T22:01:46.637Z,14.10
2017-08-20T22:04:14.499Z,14.10
2017-08-20T22:06:42.357Z,14.00
2017-08-20T22:09:10.220Z,14.10
2017-08-20T22:11:38.084Z,14.10
2017-08-20T22:14:05.958Z,14.10
2017-08-20T22:16:34.533Z,14.10
2017-08-20T22:19:02.393Z,14.00
2017-08-20T22:21:30.462Z,14.00
2017-08-20T22:23:58.326Z,13.90
2017-08-20T22:26:26.394Z,13.90
2017-08-20T22:28:54.259Z,13.90
2017-08-20T22:31:23.044Z,14.00
2017-08-20T22:33:50.907Z,13.90
2017-08-20T22:36:18.976Z,13.90
2017-08-20T22:38:46.841Z,13.90
2017-08-20T22:41:14.703Z,13.90
2017-08-20T22:43:42.570Z,13.90
2017-08-20T22:46:10.437Z,13.80
2017-08-20T22:48:38.295Z,13.80
2017-08-20T22:51:06.071Z,13.80
2017-08-20T22:53:33.819Z,13.70
2017-08-20T22:56:01.683Z,13.70
2017-08-20T22:58:29.545Z,13.60
2017-08-20T23:00:57.411Z,13.70
2017-08-20T23:03:25.274Z,13.70
2017-08-20T23:05:53.137Z,13.60
2017-08-20T23:08:21.001Z,13.70
2017-08-20T23:10:48.865Z,13.70
2017-08-20T23:13:16.730Z,13.80
2017-08-20T23:15:44.593Z,13.90
2017-08-20T23:18:12.458Z,13.90
2017-08-20T23:20:40.323Z,13.90
2017-08-20T23:23:08.185Z,13.90
2017-08-20T23:25:35.908Z,14.00
2017-08-20T23:28:03.810Z,13.90
2017-08-20T23:30:31.674Z,13.90
2017-08-20T23:32:59.537Z,13.80
2017-08-20T23:35:27.404Z,13.80
2017-08-20T23:37:55.265Z,13.70
2017-08-20T23:40:23.128Z,13.70
2017-08-20T23:42:50.993Z,13.70
2017-08-20T23:45:18.860Z,13.70
2017-08-20T23:47:46.721Z,13.80
2017-08-20T23:50:14.585Z,13.70
2017-08-20T23:52:42.449Z,13.70
2017-08-20T23:55:10.322Z,13.70
2017-08-20T23:57:38.193Z,13.70
